Time;durP1;ratioP1;P1;durP2;ratioP2;P2;SDS_P1;SDS_P2;PMS_P1;PMS_P2;Temp;Humidity;BMP_temperature;BMP_pressure;BME280_temperature;BME280_humidity;BME280_pressure;Samples;Min_cycle;Max_cycle;Signal;HPM_P1;HPM_P2
2022/08/05 00:01:21;;;;;;;4.80;2.75;;;27.00;99.90;;;;;;5052208;28;20032;-71
2022/08/05 00:03:49;;;;;;;5.90;2.50;;;27.00;99.90;;;;;;5051978;28;20147;-71
2022/08/05 00:06:15;;;;;;;6.68;2.90;;;26.90;99.90;;;;;;5051995;28;20126;-71
2022/08/05 00:08:42;;;;;;;6.95;2.83;;;26.90;99.90;;;;;;5050294;28;20036;-71
2022/08/05 00:11:09;;;;;;;;;;;26.90;99.90;;;;;;5052337;28;20041;-71
2022/08/05 00:13:37;;;;;;;5.70;2.70;;;27.00;99.90;;;;;;5051531;28;20015;-71
2022/08/05 00:16:04;;;;;;;4.75;2.88;;;27.00;99.90;;;;;;5051517;28;20028;-71
2022/08/05 00:18:30;;;;;;;5.72;2.95;;;27.10;99.90;;;;;;5051698;28;20376;-71
2022/08/05 00:20:56;;;;;;;;;;;27.10;99.90;;;;;;5051791;28;20041;-71
2022/08/05 00:23:23;;;;;;;6.10;2.90;;;27.00;99.90;;;;;;5051472;28;19915;-70
2022/08/05 00:25:50;;;;;;;6.07;2.90;;;27.00;99.90;;;;;;5051151;28;20064;-71
2022/08/05 00:28:16;;;;;;;6.22;2.97;;;26.90;99.90;;;;;;5051208;28;20048;-71
2022/08/05 00:30:42;;;;;;;;;;;26.90;99.90;;;;;;5051809;28;20078;-71
2022/08/05 00:33:08;;;;;;;5.47;2.85;;;26.80;99.90;;;;;;5051141;28;20265;-71
2022/08/05 00:35:35;;;;;;;5.25;2.95;;;26.80;99.90;;;;;;5051041;28;20072;-70
2022/08/05 00:38:01;;;;;;;6.53;3.20;;;26.70;99.90;;;;;;5051175;28;20029;-70
2022/08/05 00:40:27;;;;;;;8.73;3.15;;;26.70;99.90;;;;;;5051050;28;20060;-71
2022/08/05 00:42:54;;;;;;;7.97;3.72;;;26.70;99.90;;;;;;5051004;28;20052;-70
2022/08/05 00:45:20;;;;;;;8.13;3.53;;;26.60;99.90;;;;;;5050931;28;20104;-70
2022/08/05 00:47:46;;;;;;;5.85;3.90;;;26.60;99.90;;;;;;5051218;28;20025;-71
2022/08/05 00:50:12;;;;;;;5.75;4.07;;;26.60;99.90;;;;;;5051002;28;20025;-71
2022/08/05 00:52:38;;;;;;;6.45;4.03;;;26.60;99.90;;;;;;5051238;28;20032;-71
2022/08/05 00:55:05;;;;;;;6.80;3.65;;;26.60;99.90;;;;;;5050559;28;20018;-71
2022/08/05 00:57:31;;;;;;;6.50;3.67;;;26.60;99.90;;;;;;5051359;28;20095;-71
2022/08/05 00:59:57;;;;;;;4.68;3.40;;;26.70;99.90;;;;;;5051027;28;20059;-71
2022/08/05 01:02:23;;;;;;;5.40;3.08;;;26.60;99.90;;;;;;5050638;28;20481;-71
2022/08/05 01:04:49;;;;;;;10.00;3.40;;;26.60;99.90;;;;;;5050519;28;20031;-71
2022/08/05 01:07:15;;;;;;;4.35;3.03;;;26.70;99.90;;;;;;5050694;28;20021;-71
2022/08/05 01:09:41;;;;;;;4.40;3.03;;;26.60;99.90;;;;;;5049242;28;20361;-71
2022/08/05 01:12:14;;;;;;;7.68;3.17;;;26.60;99.90;;;;;;5050748;28;20021;-71
2022/08/05 01:14:44;;;;;;;6.75;3.20;;;26.60;99.90;;;;;;5050753;28;20025;-71
2022/08/05 01:17:12;;;;;;;6.60;2.90;;;26.60;99.90;;;;;;5050760;28;20037;-71
2022/08/05 01:19:52;;;;;;;6.80;3.08;;;26.50;99.90;;;;;;5050584;28;20033;-71
2022/08/05 01:22:40;;;;;;;4.95;3.13;;;26.50;99.90;;;;;;5051043;28;20021;-71
2022/08/05 01:25:36;;;;;;;4.63;3.00;;;26.50;99.90;;;;;;5050413;28;20053;-71
2022/08/05 01:28:26;;;;;;;5.15;3.20;;;26.50;99.90;;;;;;5050875;28;20025;-71
2022/08/05 01:31:09;;;;;;;7.38;3.25;;;26.50;99.90;;;;;;5050758;28;20066;-71
2022/08/05 01:33:57;;;;;;;7.05;3.28;;;26.60;99.90;;;;;;5050674;28;20060;-71
2022/08/05 01:36:28;;;;;;;5.00;3.10;;;26.50;99.90;;;;;;5050750;28;20024;-72
2022/08/05 01:38:56;;;;;;;5.30;3.00;;;26.50;99.90;;;;;;5050493;28;20029;-71
2022/08/05 01:41:23;;;;;;;9.23;3.40;;;26.50;99.90;;;;;;5050302;28;20033;-71
2022/08/05 01:43:51;;;;;;;4.57;3.00;;;26.50;99.90;;;;;;5050443;28;20025;-70
2022/08/05 01:46:18;;;;;;;3.83;3.08;;;26.60;99.80;;;;;;5050498;28;20059;-70
2022/08/05 01:48:45;;;;;;;6.13;3.15;;;26.60;99.70;;;;;;5048957;28;20067;-71
2022/08/05 01:51:13;;;;;;;4.40;3.20;;;26.60;99.70;;;;;;5050587;28;20033;-70
2022/08/05 01:53:42;;;;;;;4.88;3.00;;;26.60;99.70;;;;;;5050236;28;20022;-72
2022/08/05 01:56:10;;;;;;;6.78;3.40;;;26.60;99.70;;;;;;5050626;28;20070;-71
2022/08/05 01:58:38;;;;;;;5.00;2.90;;;26.50;99.70;;;;;;5050457;28;20426;-71
2022/08/05 02:01:05;;;;;;;3.95;2.83;;;26.50;99.60;;;;;;5050278;28;20424;-71
2022/08/05 02:03:38;;;;;;;5.45;3.42;;;26.40;99.70;;;;;;5050219;28;20170;-71
2022/08/05 02:06:06;;;;;;;5.68;3.40;;;26.40;99.60;;;;;;5050423;28;20109;-71
2022/08/05 02:08:33;;;;;;;4.72;3.42;;;26.40;99.40;;;;;;5052821;28;20021;-71
2022/08/05 02:11:14;;;;;;;5.50;3.10;;;26.40;99.40;;;;;;5054214;28;20053;-71
2022/08/05 02:14:08;;;;;;;6.18;3.10;;;26.50;99.20;;;;;;5054251;28;20028;-71
2022/08/05 02:16:59;;;;;;;4.57;3.37;;;26.50;99.10;;;;;;5053958;28;20418;-72
2022/08/05 02:19:47;;;;;;;4.75;3.33;;;26.50;99.00;;;;;;5054024;28;20433;-72
2022/08/05 02:22:22;;;;;;;7.15;3.60;;;26.50;98.90;;;;;;5053767;28;20025;-71
2022/08/05 02:24:52;;;;;;;5.93;3.67;;;26.50;99.30;;;;;;5053787;28;20407;-71
2022/08/05 02:27:22;;;;;;;5.75;4.00;;;26.50;99.10;;;;;;5053803;28;20025;-71
2022/08/05 02:29:49;;;;;;;5.38;3.90;;;26.50;99.20;;;;;;5051985;28;20021;-71
2022/08/05 02:32:20;;;;;;;5.25;3.40;;;26.50;99.20;;;;;;5050899;28;20044;-71
2022/08/05 02:34:46;;;;;;;4.85;3.15;;;26.50;98.90;;;;;;5053308;28;20122;-71
2022/08/05 02:37:13;;;;;;;7.65;3.45;;;26.60;98.80;;;;;;5053172;28;20029;-71
2022/08/05 02:39:41;;;;;;;5.70;3.15;;;26.50;98.70;;;;;;5053129;28;20045;-71
2022/08/05 02:42:08;;;;;;;5.72;3.30;;;26.50;98.60;;;;;;5053092;28;20025;-71
2022/08/05 02:44:38;;;;;;;7.63;3.20;;;26.60;98.30;;;;;;5053038;28;20183;-71
2022/08/05 02:47:06;;;;;;;4.68;3.33;;;26.70;98.00;;;;;;5053135;28;20036;-71
2022/08/05 02:49:38;;;;;;;5.65;3.20;;;26.70;97.70;;;;;;5052944;28;20032;-71
2022/08/05 02:52:12;;;;;;;6.43;3.40;;;26.80;97.60;;;;;;5052683;28;20155;-71
2022/08/05 02:54:41;;;;;;;3.63;3.05;;;26.80;97.50;;;;;;5053025;28;20100;-71
2022/08/05 02:57:10;;;;;;;5.57;3.10;;;26.90;97.30;;;;;;5052465;28;20405;-71
2022/08/05 02:59:37;;;;;;;4.30;3.33;;;26.90;97.00;;;;;;5052830;28;20115;-71
2022/08/05 03:02:05;;;;;;;6.97;3.13;;;26.90;96.90;;;;;;5052603;28;20119;-71
2022/08/05 03:04:31;;;;;;;5.10;3.08;;;26.90;96.80;;;;;;5052288;28;20029;-71
2022/08/05 03:06:58;;;;;;;5.40;2.90;;;27.00;96.60;;;;;;5052472;28;20033;-71
2022/08/05 03:09:24;;;;;;;4.97;3.17;;;27.00;96.40;;;;;;5052769;28;20029;-71
2022/08/05 03:11:50;;;;;;;;;;;26.90;96.10;;;;;;5053587;28;20060;-70
2022/08/05 03:14:16;;;;;;;;;;;27.00;96.20;;;;;;5053426;28;19944;-71
2022/08/05 03:16:42;;;;;;;5.45;3.10;;;26.90;96.10;;;;;;5052889;28;19912;-71
2022/08/05 03:19:08;;;;;;;5.00;3.15;;;26.90;96.10;;;;;;5052549;28;20033;-71
2022/08/05 03:21:35;;;;;;;6.15;3.15;;;26.90;95.90;;;;;;5053404;28;20036;-70
2022/08/05 03:24:02;;;;;;;3.60;2.65;;;26.90;95.80;;;;;;5053498;28;20036;-71
2022/08/05 03:26:28;;;;;;;4.47;3.20;;;27.00;95.70;;;;;;5053891;28;20139;-71
2022/08/05 03:28:55;;;;;;;4.97;3.03;;;26.90;95.60;;;;;;5053457;28;20029;-71
2022/08/05 03:31:21;;;;;;;5.22;3.42;;;26.90;95.50;;;;;;5053291;28;20017;-71
2022/08/05 03:33:47;;;;;;;5.28;3.10;;;26.90;95.70;;;;;;5053528;28;20155;-71
2022/08/05 03:36:13;;;;;;;7.10;3.13;;;26.90;95.70;;;;;;5053000;28;20073;-71
2022/08/05 03:38:41;;;;;;;5.53;3.22;;;26.90;95.60;;;;;;5052832;28;20025;-71
2022/08/05 03:41:07;;;;;;;6.55;3.30;;;26.90;95.70;;;;;;5052760;28;20368;-71
2022/08/05 03:43:33;;;;;;;5.65;3.40;;;26.90;95.50;;;;;;5053062;28;20052;-71
2022/08/05 03:45:59;;;;;;;5.07;3.10;;;26.70;95.80;;;;;;5053311;28;20032;-71
2022/08/05 03:48:27;;;;;;;5.50;3.20;;;26.80;95.70;;;;;;5053575;28;20028;-71
2022/08/05 03:51:08;;;;;;;6.10;3.22;;;26.80;95.40;;;;;;5053005;28;20032;-72
2022/08/05 03:54:07;;;;;;;5.60;3.20;;;26.80;95.30;;;;;;5053645;28;20029;-71
2022/08/05 03:56:44;;;;;;;3.75;3.10;;;26.80;95.20;;;;;;5052931;28;20159;-71
2022/08/05 03:59:34;;;;;;;5.97;3.10;;;26.80;95.20;;;;;;5052961;28;20037;-71
2022/08/05 04:02:01;;;;;;;7.88;3.20;;;26.80;95.10;;;;;;5052882;28;20101;-71
2022/08/05 04:04:30;;;;;;;4.63;2.88;;;26.80;95.20;;;;;;5052556;28;20032;-71
2022/08/05 04:06:58;;;;;;;7.00;3.05;;;26.70;95.20;;;;;;5052471;28;20112;-71
2022/08/05 04:09:25;;;;;;;5.90;3.00;;;26.70;95.30;;;;;;5052401;28;20033;-71
2022/08/05 04:11:51;;;;;;;4.20;3.00;;;26.60;95.50;;;;;;5052639;28;20028;-71
2022/08/05 04:14:18;;;;;;;5.72;2.60;;;26.60;95.60;;;;;;5052492;28;20029;-73
2022/08/05 04:16:44;;;;;;;6.13;2.70;;;26.60;95.60;;;;;;5052408;28;20017;-71
2022/08/05 04:19:11;;;;;;;5.90;2.83;;;26.60;95.70;;;;;;5052899;28;20044;-71
2022/08/05 04:21:38;;;;;;;6.30;3.05;;;26.60;95.60;;;;;;5053054;28;20025;-71
2022/08/05 04:24:04;;;;;;;4.22;3.15;;;26.60;95.60;;;;;;5052700;28;20086;-71
2022/08/05 04:26:30;;;;;;;;;;;26.60;95.70;;;;;;5053299;28;20428;-71
2022/08/05 04:28:56;;;;;;;;;;;26.50;95.70;;;;;;5052895;28;19908;-71
2022/08/05 04:31:22;;;;;;;5.55;2.90;;;26.50;95.60;;;;;;5051816;28;19959;-71
2022/08/05 04:33:48;;;;;;;4.00;3.03;;;26.50;95.30;;;;;;5052637;28;20378;-71
2022/08/05 04:36:14;;;;;;;4.63;2.97;;;26.50;95.40;;;;;;5052595;28;20035;-71
2022/08/05 04:38:44;;;;;;;9.25;3.17;;;26.50;95.30;;;;;;5052768;28;20504;-71
2022/08/05 04:41:11;;;;;;;6.18;3.20;;;26.50;95.30;;;;;;5053221;28;20033;-70
2022/08/05 04:43:37;;;;;;;;;;;26.50;95.20;;;;;;5053255;28;20040;-72
2022/08/05 04:46:03;;;;;;;5.28;3.00;;;26.50;95.40;;;;;;5051473;28;20349;-71
2022/08/05 04:48:29;;;;;;;;;;;26.50;95.40;;;;;;5053425;28;20060;-71
2022/08/05 04:50:56;;;;;;;6.88;2.92;;;26.50;95.30;;;;;;5052786;28;19904;-71
2022/08/05 04:53:22;;;;;;;;;;;26.50;95.50;;;;;;5053067;28;20501;-71
2022/08/05 04:55:48;;;;;;;6.82;2.83;;;26.40;95.50;;;;;;5052868;28;19912;-71
2022/08/05 04:58:15;;;;;;;4.07;2.50;;;26.50;95.20;;;;;;5052699;28;20029;-71
2022/08/05 05:00:42;;;;;;;5.40;3.05;;;26.50;95.10;;;;;;5052796;28;20044;-71
2022/08/05 05:03:09;;;;;;;4.72;2.97;;;26.50;95.30;;;;;;5052581;28;20075;-71
2022/08/05 05:05:36;;;;;;;6.30;3.20;;;26.60;95.20;;;;;;5052958;28;20032;-71
2022/08/05 05:08:06;;;;;;;5.60;2.80;;;26.60;95.20;;;;;;5052912;28;20037;-72
2022/08/05 05:10:44;;;;;;;9.40;3.40;;;26.60;95.30;;;;;;5052914;28;20021;-71
2022/08/05 05:13:12;;;;;;;4.53;2.95;;;26.70;95.40;;;;;;5051978;28;20021;-72
2022/08/05 05:15:39;;;;;;;8.20;3.22;;;26.70;95.20;;;;;;5051811;28;20056;-72
2022/08/05 05:18:06;;;;;;;8.15;3.10;;;26.80;95.10;;;;;;5052244;28;20067;-72
2022/08/05 05:20:33;;;;;;;6.55;2.97;;;26.90;95.10;;;;;;5052381;28;20041;-71
2022/08/05 05:23:03;;;;;;;5.13;2.78;;;27.40;94.80;;;;;;5052481;28;20018;-72
2022/08/05 05:25:29;;;;;;;5.70;2.80;;;28.50;93.80;;;;;;5052194;28;20053;-72
2022/08/05 05:27:55;;;;;;;6.78;2.70;;;29.70;92.30;;;;;;5052875;28;20556;-72
2022/08/05 05:30:22;;;;;;;4.45;2.50;;;30.80;91.40;;;;;;5052572;28;20017;-72
2022/08/05 05:32:48;;;;;;;6.70;2.53;;;31.80;90.10;;;;;;5052616;28;20469;-72
2022/08/05 05:35:15;;;;;;;4.43;2.40;;;32.60;87.80;;;;;;5051883;28;20430;-70
2022/08/05 05:37:56;;;;;;;3.70;2.38;;;33.80;86.00;;;;;;5052269;28;20365;-71
2022/08/05 05:40:23;;;;;;;5.07;2.42;;;35.30;81.80;;;;;;5051795;28;20029;-70
2022/08/05 05:42:50;;;;;;;7.53;2.08;;;36.80;78.60;;;;;;5055011;28;20029;-71
2022/08/05 05:45:17;;;;;;;4.25;2.03;;;38.20;74.90;;;;;;5056169;28;20024;-71
2022/08/05 05:47:44;;;;;;;6.65;2.40;;;39.60;71.90;;;;;;5056184;28;20075;-72
2022/08/05 05:50:13;;;;;;;5.32;2.10;;;40.50;68.90;;;;;;5055348;28;20040;-72
2022/08/05 05:52:39;;;;;;;6.20;1.77;;;41.40;66.90;;;;;;5055292;28;20032;-72
2022/08/05 05:55:10;;;;;;;12.98;2.15;;;42.60;65.50;;;;;;5055154;28;20029;-72
2022/08/05 05:57:38;;;;;;;15.80;2.33;;;43.60;62.80;;;;;;5055545;28;20461;-72
2022/08/05 06:00:08;;;;;;;5.93;1.88;;;44.40;60.60;;;;;;5055405;28;20025;-71
2022/08/05 06:02:34;;;;;;;6.55;1.60;;;44.90;58.70;;;;;;5055250;28;20021;-71
2022/08/05 06:05:01;;;;;;;7.13;1.98;;;44.50;58.60;;;;;;5055350;28;20445;-72
2022/08/05 06:07:27;;;;;;;4.47;1.75;;;44.70;57.60;;;;;;5055340;28;20438;-71
2022/08/05 06:09:53;;;;;;;4.10;1.80;;;43.50;58.20;;;;;;5055003;28;20017;-71
2022/08/05 06:12:19;;;;;;;6.10;1.73;;;43.20;58.70;;;;;;5055213;28;20393;-71
2022/08/05 06:14:45;;;;;;;4.43;1.70;;;42.20;59.50;;;;;;5055239;28;20025;-71
2022/08/05 06:17:11;;;;;;;5.93;1.70;;;42.30;59.80;;;;;;5054953;28;20436;-71
2022/08/05 06:19:38;;;;;;;4.50;1.80;;;42.70;58.60;;;;;;5055455;28;20123;-71
2022/08/05 06:22:05;;;;;;;3.67;1.73;;;42.80;58.00;;;;;;5055146;28;20523;-71
2022/08/05 06:24:32;;;;;;;4.32;1.70;;;42.40;58.80;;;;;;5055293;28;20065;-71
2022/08/05 06:26:58;;;;;;;4.97;1.70;;;43.10;57.90;;;;;;5055195;28;20017;-71
2022/08/05 06:29:24;;;;;;;6.30;2.17;;;43.60;56.50;;;;;;5055106;28;20377;-71
2022/08/05 06:31:51;;;;;;;6.45;1.80;;;43.10;56.90;;;;;;5054786;28;20036;-71
2022/08/05 06:34:17;;;;;;;7.43;2.00;;;42.80;56.60;;;;;;5054911;28;20056;-71
2022/08/05 06:36:43;;;;;;;10.07;2.17;;;43.20;57.50;;;;;;5053629;28;20017;-71
2022/08/05 06:39:09;;;;;;;3.63;1.70;;;44.40;56.10;;;;;;5054800;28;20072;-72
2022/08/05 06:41:36;;;;;;;8.98;2.22;;;45.40;54.90;;;;;;5054813;28;20025;-71
2022/08/05 06:44:02;;;;;;;14.70;2.53;;;46.30;54.30;;;;;;5055325;28;20029;-72
2022/08/05 06:46:28;;;;;;;11.68;2.33;;;47.30;53.60;;;;;;5054680;28;20032;-72
2022/08/05 06:48:54;;;;;;;10.68;2.58;;;47.90;52.80;;;;;;5055170;28;20025;-72
2022/08/05 06:51:21;;;;;;;18.80;2.50;;;48.40;51.80;;;;;;5054438;28;20025;-71
2022/08/05 06:53:47;;;;;;;11.05;2.40;;;48.70;51.70;;;;;;5054292;28;20094;-72
2022/08/05 06:56:13;;;;;;;12.82;2.40;;;49.30;51.10;;;;;;5054661;28;20017;-72
2022/08/05 06:58:39;;;;;;;5.00;1.40;;;49.50;50.50;;;;;;5054846;28;20029;-72
2022/08/05 07:01:05;;;;;;;5.25;1.50;;;48.90;48.40;;;;;;5054593;28;20052;-72
2022/08/05 07:03:32;;;;;;;11.98;1.92;;;48.10;49.20;;;;;;5054869;28;20457;-72
2022/08/05 07:06:00;;;;;;;7.68;1.58;;;48.10;49.20;;;;;;5054896;28;20487;-72
2022/08/05 07:08:27;;;;;;;5.55;1.40;;;47.60;49.40;;;;;;5054568;28;20446;-72
2022/08/05 07:10:54;;;;;;;6.00;1.58;;;47.60;49.00;;;;;;5054328;28;20035;-72
2022/08/05 07:18:52;;;;;;;5.65;1.50;;;47.00;49.70;;;;;;5054577;28;20174;-72
2022/08/05 07:21:19;;;;;;;6.55;1.50;;;46.60;49.30;;;;;;5054712;28;20036;-72
2022/08/05 07:23:45;;;;;;;4.50;1.38;;;46.40;49.90;;;;;;5054228;28;20053;-72
2022/08/05 07:26:11;;;;;;;7.70;1.90;;;46.50;49.20;;;;;;5053818;28;20169;-72
2022/08/05 07:28:37;;;;;;;5.47;1.83;;;46.20;50.10;;;;;;5053620;28;20087;-72
2022/08/05 07:31:03;;;;;;;3.03;1.63;;;45.60;50.00;;;;;;5054009;28;20358;-72
2022/08/05 07:33:29;;;;;;;6.18;1.60;;;44.80;49.80;;;;;;5054170;28;20464;-72
2022/08/05 07:35:55;;;;;;;5.88;1.77;;;44.10;50.60;;;;;;5054165;28;20033;-72
2022/08/05 07:38:21;;;;;;;8.75;2.08;;;43.50;51.00;;;;;;5054101;28;20040;-72
2022/08/05 07:40:47;;;;;;;8.10;2.20;;;42.50;51.70;;;;;;5053965;28;20037;-72
2022/08/05 07:43:13;;;;;;;4.57;1.80;;;42.20;52.80;;;;;;5053667;28;20029;-72
2022/08/05 07:45:42;;;;;;;7.40;1.90;;;41.80;52.30;;;;;;5053829;28;20032;-72
2022/08/05 07:48:09;;;;;;;7.43;1.92;;;41.30;52.90;;;;;;5053878;28;20037;-72
2022/08/05 07:50:35;;;;;;;3.40;1.60;;;40.40;52.70;;;;;;5053506;28;20500;-72
2022/08/05 07:53:01;;;;;;;5.25;1.60;;;39.70;53.40;;;;;;5053317;28;20036;-72
2022/08/05 07:55:28;;;;;;;6.20;1.70;;;39.90;53.60;;;;;;5053051;28;20192;-72
2022/08/05 07:57:54;;;;;;;4.40;1.67;;;39.50;52.90;;;;;;5052529;28;20021;-72
2022/08/05 08:00:20;;;;;;;9.82;2.25;;;39.40;53.60;;;;;;5052621;28;20040;-72
2022/08/05 08:02:46;;;;;;;28.02;4.03;;;39.60;53.20;;;;;;5052654;28;20100;-72
2022/08/05 08:05:12;;;;;;;14.07;3.03;;;39.70;56.80;;;;;;5051989;28;20028;-71
2022/08/05 08:07:38;;;;;;;12.30;3.80;;;39.50;59.80;;;;;;5052639;28;20036;-72
2022/08/05 08:10:05;;;;;;;8.32;2.70;;;39.60;60.50;;;;;;5052502;28;20025;-71
2022/08/05 08:12:31;;;;;;;8.70;2.92;;;39.60;61.00;;;;;;5052468;28;20033;-71
2022/08/05 08:14:57;;;;;;;8.18;3.10;;;39.20;62.30;;;;;;5052102;28;20021;-73
2022/08/05 08:17:24;;;;;;;7.25;2.50;;;38.40;64.30;;;;;;5052315;28;20032;-71
2022/08/05 08:19:50;;;;;;;9.38;2.65;;;38.00;66.30;;;;;;5052909;28;20389;-72
2022/08/05 08:22:16;;;;;;;8.88;2.88;;;37.80;66.90;;;;;;5051526;28;20488;-71
2022/08/05 08:24:42;;;;;;;7.50;2.75;;;37.30;68.30;;;;;;5052497;28;20096;-71
2022/08/05 08:27:08;;;;;;;10.77;2.90;;;37.00;70.00;;;;;;5052834;28;20049;-72
2022/08/05 08:29:34;;;;;;;9.05;2.70;;;37.30;69.20;;;;;;5053068;28;20469;-72
2022/08/05 08:32:00;;;;;;;8.00;2.30;;;37.60;69.60;;;;;;5053393;28;20056;-72
2022/08/05 08:34:26;;;;;;;6.68;2.85;;;37.90;68.70;;;;;;5052530;28;20365;-72
2022/08/05 08:36:54;;;;;;;8.82;2.40;;;38.30;69.20;;;;;;5052550;28;20025;-72
2022/08/05 08:39:22;;;;;;;7.15;2.60;;;38.40;67.60;;;;;;5052206;28;20105;-74
2022/08/05 08:41:48;;;;;;;5.65;2.30;;;38.60;66.70;;;;;;5052039;28;20430;-72
2022/08/05 08:44:17;;;;;;;10.02;2.60;;;38.20;66.00;;;;;;5053036;28;20045;-72
2022/08/05 08:46:46;;;;;;;5.82;2.33;;;37.90;68.00;;;;;;5052312;28;20044;-72
2022/08/05 08:49:18;;;;;;;10.55;2.50;;;38.00;69.20;;;;;;5052753;28;20454;-72
2022/08/05 08:51:47;;;;;;;6.70;2.78;;;37.70;70.30;;;;;;5052423;28;20025;-72
2022/08/05 08:54:15;;;;;;;5.53;2.40;;;37.50;70.70;;;;;;5051746;28;20059;-72
2022/08/05 08:56:41;;;;;;;9.00;2.83;;;37.10;72.90;;;;;;5051532;28;20119;-72
2022/08/05 08:59:07;;;;;;;6.20;2.50;;;37.20;73.20;;;;;;5051555;28;20028;-72
2022/08/05 09:01:33;;;;;;;8.75;2.30;;;37.00;73.20;;;;;;5051641;28;20409;-72
2022/08/05 09:03:59;;;;;;;3.92;2.08;;;37.00;75.70;;;;;;5051606;28;20021;-73
2022/08/05 09:06:27;;;;;;;9.85;4.40;;;37.00;76.50;;;;;;5051707;28;20057;-72
2022/08/05 09:08:54;;;;;;;5.28;2.10;;;37.00;76.40;;;;;;5051364;28;20025;-72
2022/08/05 09:11:20;;;;;;;8.18;2.95;;;36.50;76.60;;;;;;5051260;28;20094;-72
2022/08/05 09:13:47;;;;;;;4.20;2.60;;;36.40;76.30;;;;;;5051721;28;20105;-71
2022/08/05 09:16:13;;;;;;;13.00;2.78;;;36.70;74.60;;;;;;5051084;28;20029;-71
2022/08/05 09:18:43;;;;;;;8.00;2.40;;;36.80;74.20;;;;;;5051444;28;20035;-72
2022/08/05 09:21:09;;;;;;;7.43;2.30;;;36.80;72.80;;;;;;5051650;28;20026;-72
2022/08/05 09:23:36;;;;;;;10.45;2.83;;;36.60;73.80;;;;;;5051204;28;20081;-72
2022/08/05 09:26:18;;;;;;;10.95;2.20;;;36.70;73.60;;;;;;5050740;28;20080;-71
2022/08/05 09:28:46;;;;;;;10.07;2.47;;;36.60;73.20;;;;;;5051400;28;20114;-71
2022/08/05 09:31:14;;;;;;;8.48;2.35;;;36.50;73.20;;;;;;5051339;28;20052;-71
2022/08/05 09:33:57;;;;;;;11.80;2.30;;;36.40;72.10;;;;;;5051417;28;20029;-72
2022/08/05 09:36:36;;;;;;;7.30;2.30;;;36.30;72.60;;;;;;5049876;28;20033;-71
2022/08/05 09:39:06;;;;;;;7.18;2.47;;;36.20;73.10;;;;;;5051080;28;20025;-72
2022/08/05 09:41:32;;;;;;;8.25;2.80;;;36.20;76.00;;;;;;5051657;28;20048;-71
2022/08/05 09:43:58;;;;;;;8.18;2.58;;;36.10;76.50;;;;;;5051346;28;20036;-73
2022/08/05 09:46:32;;;;;;;7.43;2.50;;;36.10;76.20;;;;;;5051158;28;20052;-71
2022/08/05 09:49:06;;;;;;;8.43;2.15;;;36.20;73.00;;;;;;5051228;28;20037;-72
2022/08/05 09:51:37;;;;;;;8.60;2.65;;;36.40;70.90;;;;;;5051091;28;20029;-71
2022/08/05 09:54:07;;;;;;;7.68;2.38;;;36.50;73.70;;;;;;5050692;28;20032;-72
2022/08/05 09:56:36;;;;;;;7.45;2.40;;;36.70;71.90;;;;;;5051080;28;20067;-72
2022/08/05 09:59:04;;;;;;;5.82;2.30;;;36.50;77.00;;;;;;5050920;28;20167;-71
2022/08/05 10:01:32;;;;;;;6.30;1.77;;;36.50;76.50;;;;;;5050628;28;20065;-72
2022/08/05 10:04:04;;;;;;;6.40;2.30;;;36.50;74.00;;;;;;5050946;28;20021;-71
2022/08/05 10:06:31;;;;;;;5.97;2.47;;;36.30;78.10;;;;;;5050992;28;20033;-73
2022/08/05 10:09:14;;;;;;;5.95;2.30;;;36.20;77.00;;;;;;5050949;28;20167;-72
2022/08/05 10:11:41;;;;;;;10.43;2.80;;;36.20;76.50;;;;;;5050478;28;20033;-71
2022/08/05 10:14:24;;;;;;;15.00;2.17;;;36.30;78.00;;;;;;5051030;28;20028;-72
2022/08/05 10:16:54;;;;;;;7.68;2.40;;;36.10;78.50;;;;;;5051406;28;20033;-72
2022/08/05 10:19:23;;;;;;;5.65;2.10;;;36.10;78.50;;;;;;5051776;28;20033;-73
2022/08/05 10:21:49;;;;;;;6.53;2.63;;;36.10;80.50;;;;;;5052161;28;20021;-73
2022/08/05 10:24:20;;;;;;;8.27;1.98;;;35.90;79.40;;;;;;5051335;28;20124;-71
2022/08/05 10:26:48;;;;;;;7.90;2.10;;;35.80;79.20;;;;;;5051585;28;20163;-72
2022/08/05 10:29:15;;;;;;;5.20;2.05;;;35.90;81.30;;;;;;5053014;28;20036;-72
2022/08/05 10:31:41;;;;;;;11.15;2.15;;;35.80;81.80;;;;;;5055029;28;20349;-72
2022/08/05 10:34:08;;;;;;;10.70;2.28;;;35.70;84.50;;;;;;5055033;28;20075;-72
2022/08/05 10:36:36;;;;;;;7.13;2.03;;;35.70;84.40;;;;;;5055068;28;20017;-72
2022/08/05 10:39:09;;;;;;;7.45;1.95;;;35.60;85.50;;;;;;5055184;28;20032;-72
2022/08/05 10:41:46;;;;;;;5.72;2.15;;;35.70;81.90;;;;;;5055168;28;20029;-72
2022/08/05 10:44:15;;;;;;;5.00;1.60;;;35.80;79.40;;;;;;5054892;28;20115;-72
2022/08/05 10:47:11;;;;;;;6.53;1.98;;;35.80;74.80;;;;;;5054449;28;20028;-72
2022/08/05 10:50:05;;;;;;;8.25;2.15;;;36.00;77.80;;;;;;5054005;28;20044;-72
2022/08/05 10:52:58;;;;;;;6.68;1.80;;;36.00;81.90;;;;;;5054339;28;20096;-72
2022/08/05 10:55:25;;;;;;;4.00;1.63;;;36.10;79.90;;;;;;5054461;28;20028;-72
2022/08/05 10:58:10;;;;;;;7.00;1.98;;;36.20;79.50;;;;;;5054509;28;20033;-71
2022/08/05 11:00:37;;;;;;;7.50;1.92;;;36.30;79.50;;;;;;5054575;28;20475;-72
2022/08/05 11:03:03;;;;;;;11.20;2.17;;;36.20;78.20;;;;;;5054078;28;20029;-72
2022/08/05 11:05:30;;;;;;;6.25;1.88;;;36.20;76.80;;;;;;5053975;28;20449;-72
2022/08/05 11:07:57;;;;;;;5.25;2.20;;;36.10;75.10;;;;;;5054257;28;20116;-72
2022/08/05 11:10:25;;;;;;;11.05;2.15;;;36.10;77.60;;;;;;5054128;28;20043;-72
2022/08/05 11:12:51;;;;;;;4.80;1.60;;;36.30;77.40;;;;;;5053887;28;20031;-72
2022/08/05 11:15:31;;;;;;;7.68;1.60;;;36.40;74.00;;;;;;5054312;28;20032;-72
2022/08/05 11:18:08;;;;;;;6.35;1.50;;;36.40;71.70;;;;;;5054675;28;20504;-72
2022/08/05 11:20:40;;;;;;;3.60;1.60;;;36.40;70.90;;;;;;5055343;28;20079;-72
2022/08/05 11:23:28;;;;;;;11.80;1.70;;;36.60;70.90;;;;;;5054965;28;20104;-72
2022/08/05 11:26:04;;;;;;;4.88;1.73;;;36.60;69.30;;;;;;5054375;28;20056;-72
2022/08/05 11:28:33;;;;;;;11.07;1.70;;;36.80;68.60;;;;;;5054590;28;20025;-72
2022/08/05 11:31:02;;;;;;;10.05;1.58;;;36.50;68.10;;;;;;5055291;28;20074;-72
2022/08/05 11:33:36;;;;;;;4.57;1.70;;;36.60;68.20;;;;;;5054556;28;20098;-72
2022/08/05 11:36:06;;;;;;;3.55;1.45;;;36.60;67.50;;;;;;5055193;28;20021;-72
2022/08/05 11:38:41;;;;;;;6.28;1.60;;;36.50;67.40;;;;;;5054660;28;20362;-72
2022/08/05 11:41:23;;;;;;;4.87;1.87;;;36.70;72.40;;;;;;5054058;28;20130;-72
2022/08/05 11:44:00;;;;;;;8.93;1.95;;;36.80;77.20;;;;;;5054552;28;20712;-72
2022/08/05 11:46:32;;;;;;;7.68;1.73;;;36.50;79.40;;;;;;5054893;28;20032;-72
2022/08/05 11:48:59;;;;;;;5.43;1.60;;;36.50;75.80;;;;;;5054594;28;20028;-72
2022/08/05 11:51:27;;;;;;;7.43;1.80;;;36.60;74.80;;;;;;5053778;28;20478;-72
2022/08/05 11:53:54;;;;;;;6.05;1.67;;;36.60;71.60;;;;;;5053709;28;20465;-71
2022/08/05 11:56:21;;;;;;;8.48;1.70;;;36.70;72.60;;;;;;5053458;28;20025;-72
2022/08/05 11:58:49;;;;;;;8.45;2.17;;;36.60;74.50;;;;;;5053459;28;20412;-72
2022/08/05 12:01:19;;;;;;;6.00;1.85;;;36.80;82.50;;;;;;5053510;28;20457;-72
2022/08/05 12:03:53;;;;;;;8.93;2.08;;;36.70;84.50;;;;;;5053032;28;20444;-73
2022/08/05 12:06:22;;;;;;;5.28;1.80;;;36.80;84.50;;;;;;5053252;28;20106;-72
2022/08/05 12:08:50;;;;;;;14.18;2.20;;;36.80;84.20;;;;;;5053123;28;20053;-72
2022/08/05 12:11:22;;;;;;;7.25;1.98;;;36.90;81.90;;;;;;5052940;28;20055;-72
2022/08/05 12:14:05;;;;;;;12.05;2.35;;;37.00;81.20;;;;;;5052887;28;20056;-72
2022/08/05 12:16:34;;;;;;;4.68;1.75;;;37.20;74.00;;;;;;5053805;28;20116;-72
2022/08/05 12:19:00;;;;;;;6.70;2.15;;;37.20;75.20;;;;;;5053827;28;20033;-73
2022/08/05 12:21:31;;;;;;;6.30;1.73;;;37.00;78.60;;;;;;5053618;28;20029;-72
2022/08/05 12:24:09;;;;;;;9.10;1.70;;;36.70;80.10;;;;;;5053856;28;20104;-73
2022/08/05 12:26:48;;;;;;;5.45;1.63;;;36.50;80.60;;;;;;5052227;28;20437;-73
2022/08/05 12:29:17;;;;;;;6.13;1.80;;;36.50;77.80;;;;;;5053889;28;20036;-72
2022/08/05 12:31:49;;;;;;;15.15;2.05;;;36.50;80.30;;;;;;5054107;28;20465;-72
2022/08/05 12:34:18;;;;;;;8.80;1.80;;;36.60;80.80;;;;;;5053744;28;20028;-72
2022/08/05 12:36:45;;;;;;;6.75;1.75;;;36.60;80.10;;;;;;5053537;28;20028;-73
2022/08/05 12:39:12;;;;;;;7.70;1.98;;;36.50;76.20;;;;;;5053273;28;20025;-73
2022/08/05 12:41:40;;;;;;;7.93;1.83;;;36.70;77.80;;;;;;5053242;28;20473;-72
2022/08/05 12:44:10;;;;;;;7.78;1.98;;;36.60;77.80;;;;;;5053301;28;20029;-73
2022/08/05 12:46:38;;;;;;;7.93;1.77;;;36.40;78.20;;;;;;5053430;28;20070;-73
2022/08/05 12:49:16;;;;;;;5.68;1.75;;;36.30;78.70;;;;;;5053027;28;20079;-73
2022/08/05 12:51:55;;;;;;;4.43;1.77;;;36.40;81.00;;;;;;5050326;28;20036;-70
2022/08/05 12:54:24;;;;;;;8.15;1.70;;;36.50;82.20;;;;;;5052120;28;20021;-71
2022/08/05 12:56:54;;;;;;;9.88;1.80;;;36.60;84.20;;;;;;5051798;28;20025;-73
2022/08/05 12:59:31;;;;;;;11.60;1.85;;;36.60;85.40;;;;;;5052158;28;20066;-71
2022/08/05 13:02:04;;;;;;;5.20;1.88;;;36.70;85.70;;;;;;5052308;28;20059;-71
2022/08/05 13:04:33;;;;;;;7.90;2.03;;;36.10;79.90;;;;;;5052153;28;20056;-71